Station: ELLX - 21/11/2017 09:50Z (il y a 24 minutes)
ELLX 210950Z 25016KT 2000 BR -DZ FEW001 BKN003 07/07 Q1016 BECMG 5000
Vent du 250º - 16 kt
Visibilité: 2000 m (brume) (faible bruine)
Nuages épars à 100 pieds - Ciel 75% couvert à 300 pieds
Température: +07ºC - Point de rosée: +07ºC - QNH: 1016 hPa
Evoluant vers
Visibilité: 5000 m